Terminal Aerodrome Forecast
Issued by NWS Wichita, KS

Home | Current Version | Previous Version | Graphics & Text | Print | Product List | Glossary On
Versions: 1 2 3 4 5 6 7 8 9 10 11 12
000
FTUS43 KICT 180523
TAFICT
TAF
KICT 180523Z 1806/1906 29006KT P6SM SKC
     FM181800 21012G19KT P6SM FEW250
     FM190000 21011KT P6SM BKN250=

USA.gov is the U.S. government's official web portal to all federal, state and local government web resources and services.